sensor_id;sensor_type;location;lat;lon;timestamp;P1;durP1;ratioP1;P2;durP2;ratioP2
73872;SDS011;62206;47.568;9.364;2022-09-24T00:02:46;10.10;;;9.07;;
73872;SDS011;62206;47.568;9.364;2022-09-24T00:06:16;10.48;;;8.60;;
73872;SDS011;62206;47.568;9.364;2022-09-24T00:09:32;8.27;;;7.47;;
73872;SDS011;62206;47.568;9.364;2022-09-24T00:19:50;9.60;;;8.45;;
73872;SDS011;62206;47.568;9.364;2022-09-24T00:30:08;7.78;;;7.07;;
73872;SDS011;62206;47.568;9.364;2022-09-24T00:33:23;9.23;;;8.35;;
73872;SDS011;62206;47.568;9.364;2022-09-24T00:37:44;8.20;;;7.40;;
73872;SDS011;62206;47.568;9.364;2022-09-24T00:40:49;9.20;;;7.53;;
73872;SDS011;62206;47.568;9.364;2022-09-24T00:50:37;10.73;;;9.02;;
73872;SDS011;62206;47.568;9.364;2022-09-24T00:53:21;9.50;;;8.02;;
73872;SDS011;62206;47.568;9.364;2022-09-24T00:56:15;9.65;;;7.45;;
73872;SDS011;62206;47.568;9.364;2022-09-24T00:58:57;10.77;;;8.77;;
73872;SDS011;62206;47.568;9.364;2022-09-24T01:01:41;7.97;;;7.28;;
73872;SDS011;62206;47.568;9.364;2022-09-24T01:04:25;8.88;;;7.95;;
73872;SDS011;62206;47.568;9.364;2022-09-24T01:10:33;8.25;;;7.45;;
73872;SDS011;62206;47.568;9.364;2022-09-24T01:18:50;7.97;;;7.25;;
73872;SDS011;62206;47.568;9.364;2022-09-24T01:21:41;9.77;;;8.98;;
73872;SDS011;62206;47.568;9.364;2022-09-24T01:48:51;8.48;;;6.53;;
73872;SDS011;62206;47.568;9.364;2022-09-24T01:56:16;7.45;;;6.78;;
73872;SDS011;62206;47.568;9.364;2022-09-24T02:00:09;8.57;;;6.30;;
73872;SDS011;62206;47.568;9.364;2022-09-24T02:10:45;8.02;;;6.80;;
73872;SDS011;62206;47.568;9.364;2022-09-24T02:17:19;13.27;;;6.47;;
73872;SDS011;62206;47.568;9.364;2022-09-24T02:20:27;6.82;;;5.95;;
73872;SDS011;62206;47.568;9.364;2022-09-24T02:24:36;8.13;;;5.95;;
73872;SDS011;62206;47.568;9.364;2022-09-24T03:21:12;7.13;;;6.43;;
73872;SDS011;62206;47.568;9.364;2022-09-24T03:24:18;8.77;;;6.00;;
73872;SDS011;62206;47.568;9.364;2022-09-24T03:27:43;43.92;;;7.53;;
73872;SDS011;62206;47.568;9.364;2022-09-24T03:31:23;9.25;;;7.22;;
73872;SDS011;62206;47.568;9.364;2022-09-24T03:46:25;7.05;;;6.35;;
73872;SDS011;62206;47.568;9.364;2022-09-24T09:46:11;6.75;;;6.10;;
73872;SDS011;62206;47.568;9.364;2022-09-24T09:48:43;5.78;;;5.18;;
73872;SDS011;62206;47.568;9.364;2022-09-24T09:51:29;7.20;;;4.88;;
73872;SDS011;62206;47.568;9.364;2022-09-24T09:57:19;4.90;;;4.50;;
73872;SDS011;62206;47.568;9.364;2022-09-24T10:00:42;6.95;;;5.13;;
73872;SDS011;62206;47.568;9.364;2022-09-24T10:03:45;6.05;;;4.50;;
73872;SDS011;62206;47.568;9.364;2022-09-24T10:06:27;5.55;;;5.05;;
73872;SDS011;62206;47.568;9.364;2022-09-24T10:09:11;5.03;;;4.63;;
73872;SDS011;62206;47.568;9.364;2022-09-24T10:11:42;5.65;;;4.30;;
73872;SDS011;62206;47.568;9.364;2022-09-24T10:14:55;4.15;;;3.85;;
73872;SDS011;62206;47.568;9.364;2022-09-24T10:17:39;5.40;;;4.22;;
73872;SDS011;62206;47.568;9.364;2022-09-24T10:20:24;5.93;;;5.35;;
73872;SDS011;62206;47.568;9.364;2022-09-24T10:23:01;6.78;;;5.30;;
73872;SDS011;62206;47.568;9.364;2022-09-24T10:25:48;5.30;;;4.82;;
73872;SDS011;62206;47.568;9.364;2022-09-24T10:28:33;6.05;;;4.93;;
73872;SDS011;62206;47.568;9.364;2022-09-24T10:31:21;6.82;;;4.30;;
73872;SDS011;62206;47.568;9.364;2022-09-24T10:34:16;4.00;;;3.70;;
73872;SDS011;62206;47.568;9.364;2022-09-24T10:37:11;6.78;;;6.03;;
73872;SDS011;62206;47.568;9.364;2022-09-24T10:39:40;10.82;;;9.57;;
